createdAt,value
2022-11-10T00:00:40.829Z,46.40
2022-11-10T00:06:06.294Z,42.58
2022-11-10T00:11:26.482Z,42.85
2022-11-10T00:17:02.085Z,40.47
2022-11-10T00:22:25.961Z,48.67
2022-11-10T00:33:07.633Z,44.72
2022-11-10T00:38:28.364Z,41.78
2022-11-10T00:43:49.483Z,42.55
2022-11-10T00:49:16.833Z,48.13
2022-11-10T00:54:37.488Z,48.80
2022-11-10T00:59:58.026Z,48.28
2022-11-10T01:05:18.482Z,50.22
2022-11-10T01:10:39.223Z,47.22
2022-11-10T01:16:22.186Z,46.53
2022-11-10T01:21:51.819Z,47.60
2022-11-10T01:27:12.042Z,49.50
2022-11-10T01:32:32.536Z,48.33
2022-11-10T01:37:53.380Z,43.08
2022-11-10T01:43:17.096Z,50.83
2022-11-10T01:48:46.813Z,60.35
2022-11-10T01:54:22.164Z,42.55
2022-11-10T01:59:48.789Z,46.53
2022-11-10T02:05:09.735Z,52.08
2022-11-10T02:10:30.639Z,44.88
2022-11-10T02:15:51.144Z,43.88
2022-11-10T02:21:11.412Z,47.00
2022-11-10T02:26:31.923Z,50.88
2022-11-10T02:31:52.621Z,45.88
2022-11-10T02:37:12.861Z,46.58
2022-11-10T02:42:33.512Z,46.25
2022-11-10T02:47:53.960Z,54.50
2022-11-10T02:53:14.588Z,51.78
2022-11-10T02:58:34.923Z,63.67
2022-11-10T03:03:55.746Z,55.20
2022-11-10T03:09:16.295Z,49.13
2022-11-10T03:14:36.575Z,48.03
2022-11-10T03:19:56.895Z,52.80
2022-11-10T03:25:17.564Z,48.80
2022-11-10T03:30:38.457Z,45.72
2022-11-10T03:35:59.125Z,50.45
2022-11-10T03:41:20.731Z,48.70
2022-11-10T03:46:43.474Z,46.60
2022-11-10T03:52:04.096Z,49.03
2022-11-10T03:57:24.390Z,46.88
2022-11-10T04:02:44.858Z,52.42
2022-11-10T04:08:32.168Z,43.35
2022-11-10T04:14:11.123Z,46.88
2022-11-10T04:19:31.716Z,45.90
2022-11-10T04:24:52.232Z,47.42
2022-11-10T04:30:12.748Z,48.45
2022-11-10T04:35:33.131Z,48.40
2022-11-10T04:40:53.719Z,51.63
2022-11-10T04:46:22.314Z,49.10
2022-11-10T04:51:43.041Z,44.90
2022-11-10T04:57:03.751Z,46.78
2022-11-10T05:02:24.060Z,43.17
2022-11-10T05:07:48.264Z,47.90
2022-11-10T05:13:08.763Z,46.80
2022-11-10T05:18:29.424Z,48.95
2022-11-10T05:23:49.736Z,45.30
2022-11-10T05:29:09.963Z,48.83
2022-11-10T05:34:30.553Z,46.35
2022-11-10T05:39:51.246Z,43.75
2022-11-10T05:45:11.818Z,42.92
2022-11-10T05:50:33.067Z,43.40
2022-11-10T05:55:53.656Z,61.45
2022-11-10T06:01:17.300Z,47.78
2022-11-10T06:06:37.954Z,52.78
2022-11-10T06:11:58.640Z,53.55
2022-11-10T06:17:19.843Z,46.40
2022-11-10T06:22:40.744Z,48.80
2022-11-10T06:28:01.910Z,49.80
2022-11-10T06:33:22.737Z,47.75
2022-11-10T06:38:43.987Z,47.38
2022-11-10T06:44:04.603Z,51.33
2022-11-10T06:49:24.812Z,46.00
2022-11-10T06:54:45.309Z,49.10
2022-11-10T07:00:07.576Z,49.55
2022-11-10T07:05:28.195Z,44.63
2022-11-10T07:10:55.025Z,47.20
2022-11-10T07:16:20.411Z,49.65
2022-11-10T07:21:49.971Z,48.63
2022-11-10T07:27:10.901Z,46.83
2022-11-10T07:32:31.422Z,48.22
2022-11-10T07:37:51.996Z,47.45
2022-11-10T07:43:12.835Z,43.97
2022-11-10T07:48:33.347Z,41.67
2022-11-10T07:53:54.101Z,43.92
2022-11-10T07:59:14.727Z,44.22
2022-11-10T08:04:35.089Z,41.22
2022-11-10T08:09:55.603Z,43.08
2022-11-10T08:15:16.213Z,45.58
2022-11-10T08:20:36.877Z,39.60
2022-11-10T08:26:01.743Z,43.05
2022-11-10T08:31:22.288Z,42.83
2022-11-10T08:36:42.544Z,42.10
2022-11-10T08:42:02.960Z,40.67
2022-11-10T08:47:29.576Z,40.60
2022-11-10T08:52:50.295Z,39.53
2022-11-10T08:58:16.317Z,37.83
2022-11-10T09:03:37.053Z,35.97
2022-11-10T09:08:57.492Z,37.90
2022-11-10T09:14:17.815Z,35.85
2022-11-10T09:19:38.753Z,35.25
2022-11-10T09:24:59.364Z,33.97
2022-11-10T09:30:20.165Z,37.25
2022-11-10T09:35:41.274Z,34.83
2022-11-10T09:41:12.653Z,43.97
2022-11-10T09:46:40.047Z,39.88
2022-11-10T09:52:02.377Z,32.92
2022-11-10T09:57:26.008Z,34.28
2022-11-10T10:03:00.355Z,30.88
2022-11-10T10:08:50.745Z,30.50
2022-11-10T10:14:39.029Z,28.33
2022-11-10T10:20:10.148Z,28.58
2022-11-10T10:25:32.607Z,27.20
2022-11-10T10:30:55.152Z,27.88
2022-11-10T10:36:22.056Z,26.55
2022-11-10T10:41:46.853Z,27.45
2022-11-10T10:52:33.952Z,25.02
2022-11-10T10:58:03.329Z,25.15
2022-11-10T11:03:46.676Z,23.33
2022-11-10T11:09:08.264Z,22.87
2022-11-10T11:14:30.816Z,23.15
2022-11-10T11:19:57.080Z,21.35
2022-11-10T11:25:34.230Z,20.95
2022-11-10T11:31:10.655Z,20.30
2022-11-10T11:36:34.228Z,19.83
2022-11-10T11:42:14.233Z,18.83
2022-11-10T11:47:45.444Z,18.00
2022-11-10T11:53:26.548Z,17.42
2022-11-10T11:58:57.482Z,17.10
2022-11-10T12:04:36.242Z,16.13
2022-11-10T12:10:15.988Z,16.30
2022-11-10T12:15:48.883Z,16.10
2022-11-10T12:21:29.848Z,15.33
2022-11-10T12:26:58.628Z,16.80
2022-11-10T12:32:28.395Z,19.45
2022-11-10T12:38:27.565Z,14.38
2022-11-10T12:44:08.299Z,14.00
2022-11-10T12:49:41.010Z,11.75
2022-11-10T12:55:01.550Z,11.27
2022-11-10T13:00:29.127Z,11.40
2022-11-10T13:05:56.151Z,11.32
2022-11-10T13:11:16.601Z,11.45
2022-11-10T13:16:42.713Z,11.07
2022-11-10T13:22:04.503Z,12.63
2022-11-10T13:27:47.059Z,11.70
2022-11-10T13:33:22.861Z,10.88
2022-11-10T13:38:45.208Z,9.70
2022-11-10T13:44:25.295Z,10.65
2022-11-10T13:49:59.767Z,10.30
2022-11-10T13:55:31.672Z,10.75
2022-11-10T14:01:18.628Z,9.63
2022-11-10T14:06:45.386Z,15.40
2022-11-10T14:12:22.171Z,20.08
2022-11-10T14:17:51.840Z,16.48
2022-11-10T14:23:26.136Z,14.30
2022-11-10T14:28:46.645Z,13.75
2022-11-10T14:34:15.121Z,36.60
2022-11-10T14:39:35.794Z,30.55
2022-11-10T14:45:14.701Z,18.13
2022-11-10T14:50:35.857Z,40.50
2022-11-10T14:55:56.639Z,17.83
2022-11-10T15:01:33.794Z,31.02
2022-11-10T15:06:55.118Z,18.38
2022-11-10T15:12:22.223Z,16.50
2022-11-10T15:17:50.587Z,17.08
2022-11-10T15:23:42.615Z,14.93
2022-11-10T15:29:29.425Z,15.00
2022-11-10T15:34:50.918Z,14.05
2022-11-10T15:40:41.032Z,15.90
2022-11-10T15:46:17.853Z,15.70
2022-11-10T15:51:39.351Z,19.15
2022-11-10T15:57:00.485Z,24.92
2022-11-10T16:02:24.252Z,31.33
2022-11-10T16:07:44.501Z,21.30
2022-11-10T16:13:04.963Z,21.88
2022-11-10T16:18:30.109Z,28.00
2022-11-10T16:23:50.898Z,27.17
2022-11-10T16:29:20.365Z,24.20
2022-11-10T16:34:40.665Z,21.35
2022-11-10T16:40:01.324Z,19.40
2022-11-10T16:45:29.972Z,21.25
2022-11-10T16:50:56.563Z,21.45
2022-11-10T16:56:18.602Z,48.55
2022-11-10T17:01:41.524Z,36.78
2022-11-10T17:07:02.232Z,23.30
2022-11-10T17:12:22.575Z,29.10
2022-11-10T17:17:50.431Z,42.83
2022-11-10T17:23:13.893Z,43.10
2022-11-10T17:28:34.297Z,62.13
2022-11-10T17:33:55.006Z,34.15
2022-11-10T17:39:16.832Z,34.97
2022-11-10T17:44:37.188Z,38.80
2022-11-10T17:49:57.988Z,37.47
2022-11-10T17:55:24.086Z,41.63
2022-11-10T18:00:45.499Z,53.50
2022-11-10T18:06:06.553Z,32.47
2022-11-10T18:11:27.045Z,43.88
2022-11-10T18:16:47.352Z,43.08
2022-11-10T18:22:07.952Z,42.03
2022-11-10T18:27:29.106Z,47.05
2022-11-10T18:32:49.303Z,48.70
2022-11-10T18:38:13.435Z,55.20
2022-11-10T18:43:34.807Z,38.35
2022-11-10T18:48:55.119Z,41.42
2022-11-10T18:54:15.971Z,39.58
2022-11-10T18:59:37.795Z,35.45
2022-11-10T19:05:04.464Z,43.63
2022-11-10T19:10:31.870Z,42.00
2022-11-10T19:15:52.081Z,41.72
2022-11-10T19:21:14.552Z,41.08
2022-11-10T19:26:35.007Z,34.50
2022-11-10T19:31:55.510Z,32.60
2022-11-10T19:37:16.029Z,36.78
2022-11-10T19:42:36.407Z,34.08
2022-11-10T19:47:57.359Z,47.78
2022-11-10T19:53:17.778Z,41.38
2022-11-10T19:58:39.960Z,40.95
2022-11-10T20:04:01.012Z,37.58
2022-11-10T20:09:21.651Z,45.38
2022-11-10T20:14:42.156Z,56.35
2022-11-10T20:20:02.767Z,47.55
2022-11-10T20:25:23.333Z,62.45
2022-11-10T20:30:44.552Z,51.53
2022-11-10T20:36:32.111Z,49.70
2022-11-10T20:41:55.356Z,59.67
2022-11-10T20:47:15.932Z,62.25
2022-11-10T20:52:36.487Z,58.25
2022-11-10T20:57:56.662Z,71.88
2022-11-10T21:03:17.377Z,106.47
2022-11-10T21:08:37.945Z,91.82
2022-11-10T21:13:58.442Z,69.57
2022-11-10T21:19:19.015Z,65.88
2022-11-10T21:24:39.884Z,65.18
2022-11-10T21:30:00.601Z,61.80
2022-11-10T21:35:21.048Z,61.53
2022-11-10T21:40:41.847Z,62.63
2022-11-10T21:46:02.268Z,53.05
2022-11-10T21:51:23.196Z,53.90
2022-11-10T21:56:43.491Z,64.78
2022-11-10T22:02:04.050Z,53.53
2022-11-10T22:07:24.611Z,48.55
2022-11-10T22:13:17.274Z,71.32
2022-11-10T22:18:38.123Z,61.72
2022-11-10T22:24:16.888Z,49.67
2022-11-10T22:29:43.721Z,56.03
2022-11-10T22:35:04.543Z,61.53
2022-11-10T22:40:43.425Z,58.80
2022-11-10T22:46:04.132Z,67.47
2022-11-10T22:51:26.164Z,59.90
2022-11-10T22:56:48.135Z,53.88
2022-11-10T23:02:15.536Z,44.88
2022-11-10T23:07:36.143Z,49.45
2022-11-10T23:12:56.907Z,52.03
2022-11-10T23:18:17.692Z,44.53
2022-11-10T23:23:39.495Z,56.60
2022-11-10T23:29:00.015Z,56.72
2022-11-10T23:34:20.883Z,45.60
2022-11-10T23:39:41.233Z,51.80
2022-11-10T23:45:01.841Z,52.60
2022-11-10T23:50:22.812Z,48.10
2022-11-10T23:55:43.723Z,48.33
